sensor_id;sensor_type;location;lat;lon;timestamp;temperature;humidity
7606;DHT22;3844;53.360;9.738;2023-03-23T00:01:23;10.20;95.70
7606;DHT22;3844;53.360;9.738;2023-03-23T00:03:24;10.30;95.70
7606;DHT22;3844;53.360;9.738;2023-03-23T00:05:29;10.20;95.70
7606;DHT22;3844;53.360;9.738;2023-03-23T00:07:30;10.20;95.70
7606;DHT22;3844;53.360;9.738;2023-03-23T00:11:34;10.20;95.70
7606;DHT22;3844;53.360;9.738;2023-03-23T00:13:35;10.20;95.70
7606;DHT22;3844;53.360;9.738;2023-03-23T00:15:36;10.20;95.70
7606;DHT22;3844;53.360;9.738;2023-03-23T00:17:42;10.20;95.70
7606;DHT22;3844;53.360;9.738;2023-03-23T00:19:43;10.20;95.70
7606;DHT22;3844;53.360;9.738;2023-03-23T00:21:47;10.10;95.70
7606;DHT22;3844;53.360;9.738;2023-03-23T00:23:48;10.20;95.70
7606;DHT22;3844;53.360;9.738;2023-03-23T00:25:51;10.10;95.70
7606;DHT22;3844;53.360;9.738;2023-03-23T00:27:58;10.10;95.70
7606;DHT22;3844;53.360;9.738;2023-03-23T00:29:59;10.10;95.70
7606;DHT22;3844;53.360;9.738;2023-03-23T00:34:04;10.10;95.70
7606;DHT22;3844;53.360;9.738;2023-03-23T00:36:05;10.10;95.70
7606;DHT22;3844;53.360;9.738;2023-03-23T00:38:06;10.10;95.70
7606;DHT22;3844;53.360;9.738;2023-03-23T00:40:07;10.10;95.70
7606;DHT22;3844;53.360;9.738;2023-03-23T00:42:10;10.10;95.70
7606;DHT22;3844;53.360;9.738;2023-03-23T00:44:13;10.10;95.70
7606;DHT22;3844;53.360;9.738;2023-03-23T00:46:17;10.10;95.70
7606;DHT22;3844;53.360;9.738;2023-03-23T00:48:18;10.10;95.70
7606;DHT22;3844;53.360;9.738;2023-03-23T00:50:19;10.10;95.70
7606;DHT22;3844;53.360;9.738;2023-03-23T00:54:22;10.10;95.70
7606;DHT22;3844;53.360;9.738;2023-03-23T00:56:23;10.10;95.70
7606;DHT22;3844;53.360;9.738;2023-03-23T00:58:24;10.10;95.70
7606;DHT22;3844;53.360;9.738;2023-03-23T01:00:25;10.00;95.70
7606;DHT22;3844;53.360;9.738;2023-03-23T01:02:26;10.00;95.70
7606;DHT22;3844;53.360;9.738;2023-03-23T01:06:28;10.00;95.70
7606;DHT22;3844;53.360;9.738;2023-03-23T01:08:31;10.00;95.70
7606;DHT22;3844;53.360;9.738;2023-03-23T01:10:32;10.00;95.70
7606;DHT22;3844;53.360;9.738;2023-03-23T01:12:33;10.00;95.70
7606;DHT22;3844;53.360;9.738;2023-03-23T01:14:34;10.00;95.70
7606;DHT22;3844;53.360;9.738;2023-03-23T01:18:36;10.00;95.70
7606;DHT22;3844;53.360;9.738;2023-03-23T01:20:37;10.00;95.70
7606;DHT22;3844;53.360;9.738;2023-03-23T01:22:39;10.00;95.70
7606;DHT22;3844;53.360;9.738;2023-03-23T01:24:39;10.00;95.70
7606;DHT22;3844;53.360;9.738;2023-03-23T01:26:40;10.00;95.70
7606;DHT22;3844;53.360;9.738;2023-03-23T01:28:42;10.00;95.70
7606;DHT22;3844;53.360;9.738;2023-03-23T01:30:42;10.00;95.70
7606;DHT22;3844;53.360;9.738;2023-03-23T01:32:43;10.00;95.70
7606;DHT22;3844;53.360;9.738;2023-03-23T01:34:44;10.00;95.70
7606;DHT22;3844;53.360;9.738;2023-03-23T01:36:44;10.00;95.70
7606;DHT22;3844;53.360;9.738;2023-03-23T01:38:48;10.00;95.70
7606;DHT22;3844;53.360;9.738;2023-03-23T01:40:50;10.00;95.70
7606;DHT22;3844;53.360;9.738;2023-03-23T01:42:50;10.00;95.70
7606;DHT22;3844;53.360;9.738;2023-03-23T01:46:52;10.00;95.70
7606;DHT22;3844;53.360;9.738;2023-03-23T01:48:55;10.00;95.70
7606;DHT22;3844;53.360;9.738;2023-03-23T01:50:58;10.10;95.70
7606;DHT22;3844;53.360;9.738;2023-03-23T01:53:01;10.00;95.70
7606;DHT22;3844;53.360;9.738;2023-03-23T01:55:03;10.00;95.70
7606;DHT22;3844;53.360;9.738;2023-03-23T01:57:17;10.10;95.70
7606;DHT22;3844;53.360;9.738;2023-03-23T01:59:19;10.10;95.70
7606;DHT22;3844;53.360;9.738;2023-03-23T02:01:20;10.10;95.70
7606;DHT22;3844;53.360;9.738;2023-03-23T02:03:31;10.10;95.70
7606;DHT22;3844;53.360;9.738;2023-03-23T02:05:36;10.10;95.70
7606;DHT22;3844;53.360;9.738;2023-03-23T02:07:37;10.10;95.70
7606;DHT22;3844;53.360;9.738;2023-03-23T02:11:39;10.10;95.70
7606;DHT22;3844;53.360;9.738;2023-03-23T02:13:41;10.10;95.70
7606;DHT22;3844;53.360;9.738;2023-03-23T02:15:56;10.10;95.70
7606;DHT22;3844;53.360;9.738;2023-03-23T02:18:24;10.20;95.70
7606;DHT22;3844;53.360;9.738;2023-03-23T02:32:07;10.20;95.70
7606;DHT22;3844;53.360;9.738;2023-03-23T02:36:30;10.20;95.70
7606;DHT22;3844;53.360;9.738;2023-03-23T02:40:44;10.20;95.70
7606;DHT22;3844;53.360;9.738;2023-03-23T02:42:49;10.20;95.70
7606;DHT22;3844;53.360;9.738;2023-03-23T02:44:51;10.20;95.70
7606;DHT22;3844;53.360;9.738;2023-03-23T02:46:53;10.20;95.70
7606;DHT22;3844;53.360;9.738;2023-03-23T02:48:55;10.20;95.70
7606;DHT22;3844;53.360;9.738;2023-03-23T02:50:58;10.20;95.70
7606;DHT22;3844;53.360;9.738;2023-03-23T02:53:01;10.20;95.70
7606;DHT22;3844;53.360;9.738;2023-03-23T02:55:04;10.30;95.70
7606;DHT22;3844;53.360;9.738;2023-03-23T02:57:07;10.30;95.70
7606;DHT22;3844;53.360;9.738;2023-03-23T02:59:07;10.30;95.70
7606;DHT22;3844;53.360;9.738;2023-03-23T03:03:29;10.30;95.70
7606;DHT22;3844;53.360;9.738;2023-03-23T03:05:53;10.30;95.70
7606;DHT22;3844;53.360;9.738;2023-03-23T03:08:22;10.30;95.70
7606;DHT22;3844;53.360;9.738;2023-03-23T03:10:49;10.30;95.70
7606;DHT22;3844;53.360;9.738;2023-03-23T03:13:05;10.30;95.70
7606;DHT22;3844;53.360;9.738;2023-03-23T03:17:31;10.30;95.70
7606;DHT22;3844;53.360;9.738;2023-03-23T03:19:39;10.30;95.70
7606;DHT22;3844;53.360;9.738;2023-03-23T03:21:45;10.30;95.70
7606;DHT22;3844;53.360;9.738;2023-03-23T03:23:48;10.30;95.70
7606;DHT22;3844;53.360;9.738;2023-03-23T03:25:50;10.30;95.70
7606;DHT22;3844;53.360;9.738;2023-03-23T03:27:52;10.30;95.70
7606;DHT22;3844;53.360;9.738;2023-03-23T03:29:56;10.30;95.70
7606;DHT22;3844;53.360;9.738;2023-03-23T03:32:01;10.20;95.70
7606;DHT22;3844;53.360;9.738;2023-03-23T03:34:05;10.20;95.70
7606;DHT22;3844;53.360;9.738;2023-03-23T03:36:06;10.20;95.70
7606;DHT22;3844;53.360;9.738;2023-03-23T03:38:10;10.20;95.70
7606;DHT22;3844;53.360;9.738;2023-03-23T03:40:17;10.20;95.70
7606;DHT22;3844;53.360;9.738;2023-03-23T03:42:18;10.10;95.70
7606;DHT22;3844;53.360;9.738;2023-03-23T03:44:19;10.10;95.70
7606;DHT22;3844;53.360;9.738;2023-03-23T03:46:20;10.10;95.70
7606;DHT22;3844;53.360;9.738;2023-03-23T03:48:20;10.10;95.70
7606;DHT22;3844;53.360;9.738;2023-03-23T03:50:21;10.10;95.70
7606;DHT22;3844;53.360;9.738;2023-03-23T03:52:22;10.10;95.70
7606;DHT22;3844;53.360;9.738;2023-03-23T03:54:22;10.10;95.70
7606;DHT22;3844;53.360;9.738;2023-03-23T03:56:24;10.10;95.70
7606;DHT22;3844;53.360;9.738;2023-03-23T03:58:26;10.10;95.70
7606;DHT22;3844;53.360;9.738;2023-03-23T04:00:31;10.10;95.70
7606;DHT22;3844;53.360;9.738;2023-03-23T04:02:32;10.10;95.70
7606;DHT22;3844;53.360;9.738;2023-03-23T04:04:33;10.10;95.70
7606;DHT22;3844;53.360;9.738;2023-03-23T04:06:34;10.10;95.70
7606;DHT22;3844;53.360;9.738;2023-03-23T04:08:36;10.10;95.70
7606;DHT22;3844;53.360;9.738;2023-03-23T04:10:41;10.10;95.70
7606;DHT22;3844;53.360;9.738;2023-03-23T04:14:43;10.20;95.70
7606;DHT22;3844;53.360;9.738;2023-03-23T04:18:45;10.20;95.70
7606;DHT22;3844;53.360;9.738;2023-03-23T04:20:48;10.20;95.70
7606;DHT22;3844;53.360;9.738;2023-03-23T04:22:50;10.20;95.70
7606;DHT22;3844;53.360;9.738;2023-03-23T04:24:52;10.20;95.70
7606;DHT22;3844;53.360;9.738;2023-03-23T04:26:52;10.20;95.70
7606;DHT22;3844;53.360;9.738;2023-03-23T04:28:55;10.20;95.70
7606;DHT22;3844;53.360;9.738;2023-03-23T04:30:56;10.20;95.70
7606;DHT22;3844;53.360;9.738;2023-03-23T04:32:57;10.20;95.70
7606;DHT22;3844;53.360;9.738;2023-03-23T04:34:59;10.20;95.70
7606;DHT22;3844;53.360;9.738;2023-03-23T04:39:01;10.20;95.70
7606;DHT22;3844;53.360;9.738;2023-03-23T04:41:03;10.20;95.70
7606;DHT22;3844;53.360;9.738;2023-03-23T04:43:05;10.20;95.70
7606;DHT22;3844;53.360;9.738;2023-03-23T04:45:07;10.10;95.70
7606;DHT22;3844;53.360;9.738;2023-03-23T04:47:08;10.10;95.70
7606;DHT22;3844;53.360;9.738;2023-03-23T04:49:09;10.10;95.70
7606;DHT22;3844;53.360;9.738;2023-03-23T04:51:10;10.10;95.70
7606;DHT22;3844;53.360;9.738;2023-03-23T04:53:12;10.10;95.70
7606;DHT22;3844;53.360;9.738;2023-03-23T04:55:14;10.10;95.70
7606;DHT22;3844;53.360;9.738;2023-03-23T04:57:14;10.10;95.70
7606;DHT22;3844;53.360;9.738;2023-03-23T04:59:15;10.10;95.70
7606;DHT22;3844;53.360;9.738;2023-03-23T05:01:16;10.10;95.70
7606;DHT22;3844;53.360;9.738;2023-03-23T05:03:18;10.00;95.70
7606;DHT22;3844;53.360;9.738;2023-03-23T05:05:20;10.00;95.70
7606;DHT22;3844;53.360;9.738;2023-03-23T05:07:21;10.10;95.70
7606;DHT22;3844;53.360;9.738;2023-03-23T05:09:21;10.10;95.70
7606;DHT22;3844;53.360;9.738;2023-03-23T05:11:22;10.10;95.70
7606;DHT22;3844;53.360;9.738;2023-03-23T05:13:23;10.00;95.70
7606;DHT22;3844;53.360;9.738;2023-03-23T05:15:24;10.10;95.70
7606;DHT22;3844;53.360;9.738;2023-03-23T05:17:25;10.00;95.70
7606;DHT22;3844;53.360;9.738;2023-03-23T05:19:26;10.00;95.70
7606;DHT22;3844;53.360;9.738;2023-03-23T05:23:30;10.00;95.70
7606;DHT22;3844;53.360;9.738;2023-03-23T05:25:34;10.00;95.70
7606;DHT22;3844;53.360;9.738;2023-03-23T05:27:39;10.00;95.70
7606;DHT22;3844;53.360;9.738;2023-03-23T05:29:43;10.00;95.70
7606;DHT22;3844;53.360;9.738;2023-03-23T05:31:46;10.00;95.70
7606;DHT22;3844;53.360;9.738;2023-03-23T05:33:48;10.00;95.70
7606;DHT22;3844;53.360;9.738;2023-03-23T05:35:49;10.00;95.70
7606;DHT22;3844;53.360;9.738;2023-03-23T05:37:49;10.00;95.70
7606;DHT22;3844;53.360;9.738;2023-03-23T05:39:53;10.00;95.70
7606;DHT22;3844;53.360;9.738;2023-03-23T05:41:55;10.00;95.70
7606;DHT22;3844;53.360;9.738;2023-03-23T05:43:56;10.00;95.70
7606;DHT22;3844;53.360;9.738;2023-03-23T05:45:57;10.00;95.70
7606;DHT22;3844;53.360;9.738;2023-03-23T05:47:58;10.00;95.70
7606;DHT22;3844;53.360;9.738;2023-03-23T05:49:58;10.00;95.70
7606;DHT22;3844;53.360;9.738;2023-03-23T05:52:00;10.00;95.70
7606;DHT22;3844;53.360;9.738;2023-03-23T05:54:02;10.10;95.70
7606;DHT22;3844;53.360;9.738;2023-03-23T05:56:04;10.10;95.70
7606;DHT22;3844;53.360;9.738;2023-03-23T05:58:04;10.10;95.70
7606;DHT22;3844;53.360;9.738;2023-03-23T06:00:06;10.10;95.70
7606;DHT22;3844;53.360;9.738;2023-03-23T06:02:12;10.00;95.70
7606;DHT22;3844;53.360;9.738;2023-03-23T06:04:14;10.00;95.70
7606;DHT22;3844;53.360;9.738;2023-03-23T06:06:16;10.00;95.70
7606;DHT22;3844;53.360;9.738;2023-03-23T06:08:16;10.00;95.70
7606;DHT22;3844;53.360;9.738;2023-03-23T06:10:18;10.00;95.70
7606;DHT22;3844;53.360;9.738;2023-03-23T06:12:19;10.00;95.70
7606;DHT22;3844;53.360;9.738;2023-03-23T06:14:22;10.00;95.70
7606;DHT22;3844;53.360;9.738;2023-03-23T06:16:23;10.00;95.70
7606;DHT22;3844;53.360;9.738;2023-03-23T06:18:24;10.10;95.70
7606;DHT22;3844;53.360;9.738;2023-03-23T06:20:25;10.10;95.70
7606;DHT22;3844;53.360;9.738;2023-03-23T06:22:26;10.10;95.70
7606;DHT22;3844;53.360;9.738;2023-03-23T06:24:26;10.10;95.70
7606;DHT22;3844;53.360;9.738;2023-03-23T06:26:32;10.20;95.70
7606;DHT22;3844;53.360;9.738;2023-03-23T06:28:34;10.20;95.70
7606;DHT22;3844;53.360;9.738;2023-03-23T06:30:36;10.20;95.70
7606;DHT22;3844;53.360;9.738;2023-03-23T06:32:37;10.20;95.70
7606;DHT22;3844;53.360;9.738;2023-03-23T06:34:38;10.20;95.70
7606;DHT22;3844;53.360;9.738;2023-03-23T06:36:41;10.20;95.70
7606;DHT22;3844;53.360;9.738;2023-03-23T06:38:44;10.30;95.70
7606;DHT22;3844;53.360;9.738;2023-03-23T06:40:45;10.30;95.70
7606;DHT22;3844;53.360;9.738;2023-03-23T06:42:47;10.30;95.70
7606;DHT22;3844;53.360;9.738;2023-03-23T06:44:47;10.40;95.70
7606;DHT22;3844;53.360;9.738;2023-03-23T06:46:48;10.50;95.70
7606;DHT22;3844;53.360;9.738;2023-03-23T06:48:49;10.60;95.70
7606;DHT22;3844;53.360;9.738;2023-03-23T06:50:50;10.70;95.70
7606;DHT22;3844;53.360;9.738;2023-03-23T06:52:51;10.90;95.70
7606;DHT22;3844;53.360;9.738;2023-03-23T06:54:52;10.90;95.70
7606;DHT22;3844;53.360;9.738;2023-03-23T06:56:53;11.00;95.70
7606;DHT22;3844;53.360;9.738;2023-03-23T06:58:54;11.10;95.70
7606;DHT22;3844;53.360;9.738;2023-03-23T07:00:56;11.30;95.70
7606;DHT22;3844;53.360;9.738;2023-03-23T07:02:57;11.40;95.70
7606;DHT22;3844;53.360;9.738;2023-03-23T07:04:59;11.50;95.70
7606;DHT22;3844;53.360;9.738;2023-03-23T07:06:59;11.50;95.70
7606;DHT22;3844;53.360;9.738;2023-03-23T07:09:00;11.60;95.70
7606;DHT22;3844;53.360;9.738;2023-03-23T07:11:01;11.70;95.70
7606;DHT22;3844;53.360;9.738;2023-03-23T07:13:02;11.80;95.70
7606;DHT22;3844;53.360;9.738;2023-03-23T07:15:03;11.90;95.70
7606;DHT22;3844;53.360;9.738;2023-03-23T07:17:04;11.90;95.70
7606;DHT22;3844;53.360;9.738;2023-03-23T07:21:07;12.00;95.70
7606;DHT22;3844;53.360;9.738;2023-03-23T07:23:08;12.10;95.70
7606;DHT22;3844;53.360;9.738;2023-03-23T07:25:12;12.10;95.70
7606;DHT22;3844;53.360;9.738;2023-03-23T07:29:14;12.20;95.70
7606;DHT22;3844;53.360;9.738;2023-03-23T07:31:14;12.30;95.70
7606;DHT22;3844;53.360;9.738;2023-03-23T07:33:15;12.30;95.70
7606;DHT22;3844;53.360;9.738;2023-03-23T07:35:16;12.20;95.70
7606;DHT22;3844;53.360;9.738;2023-03-23T07:37:17;12.10;95.70
7606;DHT22;3844;53.360;9.738;2023-03-23T07:39:18;12.10;95.70
7606;DHT22;3844;53.360;9.738;2023-03-23T07:41:19;12.00;95.70
7606;DHT22;3844;53.360;9.738;2023-03-23T07:43:20;11.90;95.70
7606;DHT22;3844;53.360;9.738;2023-03-23T07:45:22;11.80;95.70
7606;DHT22;3844;53.360;9.738;2023-03-23T07:47:22;11.80;95.70
7606;DHT22;3844;53.360;9.738;2023-03-23T07:49:23;11.80;95.70
7606;DHT22;3844;53.360;9.738;2023-03-23T07:51:24;11.80;95.70
7606;DHT22;3844;53.360;9.738;2023-03-23T07:53:25;11.80;95.70
7606;DHT22;3844;53.360;9.738;2023-03-23T07:55:26;11.90;95.70
7606;DHT22;3844;53.360;9.738;2023-03-23T07:57:28;12.00;95.70
7606;DHT22;3844;53.360;9.738;2023-03-23T07:59:29;12.00;95.70
7606;DHT22;3844;53.360;9.738;2023-03-23T08:01:31;12.00;95.70
7606;DHT22;3844;53.360;9.738;2023-03-23T08:03:31;12.20;95.70
7606;DHT22;3844;53.360;9.738;2023-03-23T08:05:32;12.30;95.70
7606;DHT22;3844;53.360;9.738;2023-03-23T08:07:35;12.40;95.70
7606;DHT22;3844;53.360;9.738;2023-03-23T08:09:36;12.30;95.70
7606;DHT22;3844;53.360;9.738;2023-03-23T08:11:36;12.30;95.70
7606;DHT22;3844;53.360;9.738;2023-03-23T08:13:37;12.20;95.70
7606;DHT22;3844;53.360;9.738;2023-03-23T08:15:38;12.10;95.70
7606;DHT22;3844;53.360;9.738;2023-03-23T08:17:39;12.00;95.70
7606;DHT22;3844;53.360;9.738;2023-03-23T08:19:41;11.90;95.70
7606;DHT22;3844;53.360;9.738;2023-03-23T08:21:43;11.80;95.70
7606;DHT22;3844;53.360;9.738;2023-03-23T08:23:44;11.70;95.70
7606;DHT22;3844;53.360;9.738;2023-03-23T08:25:45;11.50;95.70
7606;DHT22;3844;53.360;9.738;2023-03-23T08:27:46;11.40;95.70
7606;DHT22;3844;53.360;9.738;2023-03-23T08:29:47;11.20;95.70
7606;DHT22;3844;53.360;9.738;2023-03-23T08:31:48;11.10;95.70
7606;DHT22;3844;53.360;9.738;2023-03-23T08:33:49;11.00;95.70
7606;DHT22;3844;53.360;9.738;2023-03-23T08:35:58;11.00;95.70
7606;DHT22;3844;53.360;9.738;2023-03-23T08:37:59;11.10;95.70
7606;DHT22;3844;53.360;9.738;2023-03-23T08:39:59;11.10;95.70
7606;DHT22;3844;53.360;9.738;2023-03-23T08:42:00;11.10;95.70
7606;DHT22;3844;53.360;9.738;2023-03-23T08:44:01;11.10;95.70
7606;DHT22;3844;53.360;9.738;2023-03-23T08:46:02;11.20;95.70
7606;DHT22;3844;53.360;9.738;2023-03-23T08:48:07;11.10;95.70
7606;DHT22;3844;53.360;9.738;2023-03-23T08:50:11;11.10;95.70
7606;DHT22;3844;53.360;9.738;2023-03-23T08:52:12;11.10;95.70
7606;DHT22;3844;53.360;9.738;2023-03-23T08:54:12;11.10;95.70
7606;DHT22;3844;53.360;9.738;2023-03-23T08:56:13;11.10;95.70
7606;DHT22;3844;53.360;9.738;2023-03-23T08:58:14;11.00;95.70
7606;DHT22;3844;53.360;9.738;2023-03-23T09:00:17;11.00;95.70
7606;DHT22;3844;53.360;9.738;2023-03-23T09:02:19;11.10;95.70
7606;DHT22;3844;53.360;9.738;2023-03-23T09:04:20;11.10;95.70
7606;DHT22;3844;53.360;9.738;2023-03-23T09:06:21;11.10;95.70
7606;DHT22;3844;53.360;9.738;2023-03-23T09:08:22;11.20;95.70
7606;DHT22;3844;53.360;9.738;2023-03-23T09:10:23;11.30;95.70
7606;DHT22;3844;53.360;9.738;2023-03-23T09:12:24;11.40;95.70
7606;DHT22;3844;53.360;9.738;2023-03-23T09:14:26;11.40;95.70
7606;DHT22;3844;53.360;9.738;2023-03-23T09:16:27;11.40;95.70
7606;DHT22;3844;53.360;9.738;2023-03-23T09:18:28;11.50;95.70
7606;DHT22;3844;53.360;9.738;2023-03-23T09:20:29;11.50;95.70
7606;DHT22;3844;53.360;9.738;2023-03-23T09:22:30;11.60;95.70
7606;DHT22;3844;53.360;9.738;2023-03-23T09:24:31;11.70;95.70
7606;DHT22;3844;53.360;9.738;2023-03-23T09:26:32;11.70;95.70
7606;DHT22;3844;53.360;9.738;2023-03-23T09:28:32;11.70;95.70
7606;DHT22;3844;53.360;9.738;2023-03-23T09:30:34;11.70;95.70
7606;DHT22;3844;53.360;9.738;2023-03-23T09:32:37;11.80;95.70
7606;DHT22;3844;53.360;9.738;2023-03-23T09:34:38;12.00;95.70
7606;DHT22;3844;53.360;9.738;2023-03-23T09:36:39;12.10;95.70
7606;DHT22;3844;53.360;9.738;2023-03-23T09:38:40;12.10;95.70
7606;DHT22;3844;53.360;9.738;2023-03-23T09:50:19;12.90;95.70
7606;DHT22;3844;53.360;9.738;2023-03-23T09:52:20;12.90;95.70
7606;DHT22;3844;53.360;9.738;2023-03-23T09:54:43;12.90;95.70
7606;DHT22;3844;53.360;9.738;2023-03-23T09:56:44;12.90;95.70
7606;DHT22;3844;53.360;9.738;2023-03-23T09:59:03;12.80;95.70
7606;DHT22;3844;53.360;9.738;2023-03-23T10:01:21;12.70;95.70
7606;DHT22;3844;53.360;9.738;2023-03-23T10:03:30;12.80;95.70
7606;DHT22;3844;53.360;9.738;2023-03-23T10:07:34;12.90;95.70
7606;DHT22;3844;53.360;9.738;2023-03-23T10:09:35;12.90;95.70
7606;DHT22;3844;53.360;9.738;2023-03-23T10:11:51;13.00;95.70
7606;DHT22;3844;53.360;9.738;2023-03-23T10:14:09;13.10;95.70
7606;DHT22;3844;53.360;9.738;2023-03-23T10:16:17;13.20;94.60
7606;DHT22;3844;53.360;9.738;2023-03-23T10:18:58;13.20;93.70
7606;DHT22;3844;53.360;9.738;2023-03-23T10:21:01;13.20;94.40
7606;DHT22;3844;53.360;9.738;2023-03-23T10:25:23;13.20;95.60
7606;DHT22;3844;53.360;9.738;2023-03-23T10:27:52;13.30;93.40
7606;DHT22;3844;53.360;9.738;2023-03-23T10:32:18;13.30;93.00
7606;DHT22;3844;53.360;9.738;2023-03-23T10:34:57;13.20;94.00
7606;DHT22;3844;53.360;9.738;2023-03-23T10:37:08;13.10;94.40
7606;DHT22;3844;53.360;9.738;2023-03-23T10:39:20;13.20;95.70
7606;DHT22;3844;53.360;9.738;2023-03-23T10:41:22;13.30;95.00
7606;DHT22;3844;53.360;9.738;2023-03-23T10:43:23;13.60;95.70
7606;DHT22;3844;53.360;9.738;2023-03-23T10:45:27;13.80;92.70
7606;DHT22;3844;53.360;9.738;2023-03-23T10:47:30;14.10;93.10
7606;DHT22;3844;53.360;9.738;2023-03-23T10:49:55;14.20;92.60
7606;DHT22;3844;53.360;9.738;2023-03-23T10:52:43;14.30;89.80
7606;DHT22;3844;53.360;9.738;2023-03-23T10:54:33;14.30;90.20
7606;DHT22;3844;53.360;9.738;2023-03-23T10:56:40;14.30;88.40
7606;DHT22;3844;53.360;9.738;2023-03-23T10:58:41;14.30;90.70
7606;DHT22;3844;53.360;9.738;2023-03-23T11:00:47;14.30;90.40
7606;DHT22;3844;53.360;9.738;2023-03-23T11:03:19;14.20;89.70
7606;DHT22;3844;53.360;9.738;2023-03-23T11:05:24;14.10;90.20
7606;DHT22;3844;53.360;9.738;2023-03-23T11:07:31;13.90;89.90
7606;DHT22;3844;53.360;9.738;2023-03-23T11:09:39;13.90;91.70
7606;DHT22;3844;53.360;9.738;2023-03-23T11:11:43;13.80;91.30
7606;DHT22;3844;53.360;9.738;2023-03-23T11:13:46;13.60;91.20
7606;DHT22;3844;53.360;9.738;2023-03-23T11:15:48;13.70;93.00
7606;DHT22;3844;53.360;9.738;2023-03-23T11:18:03;13.80;92.80
7606;DHT22;3844;53.360;9.738;2023-03-23T11:20:12;14.00;91.00
7606;DHT22;3844;53.360;9.738;2023-03-23T11:22:29;14.10;90.60
7606;DHT22;3844;53.360;9.738;2023-03-23T11:24:34;14.00;90.60
7606;DHT22;3844;53.360;9.738;2023-03-23T11:26:36;13.90;88.90
7606;DHT22;3844;53.360;9.738;2023-03-23T11:28:57;13.90;90.50
7606;DHT22;3844;53.360;9.738;2023-03-23T11:31:01;13.90;91.80
7606;DHT22;3844;53.360;9.738;2023-03-23T11:33:02;13.80;91.00
7606;DHT22;3844;53.360;9.738;2023-03-23T11:35:06;13.80;92.00
7606;DHT22;3844;53.360;9.738;2023-03-23T11:37:10;13.90;91.50
7606;DHT22;3844;53.360;9.738;2023-03-23T11:39:23;13.90;91.40
7606;DHT22;3844;53.360;9.738;2023-03-23T11:41:31;13.90;89.60
7606;DHT22;3844;53.360;9.738;2023-03-23T11:43:38;13.90;88.80
7606;DHT22;3844;53.360;9.738;2023-03-23T11:45:40;13.60;89.50
7606;DHT22;3844;53.360;9.738;2023-03-23T11:47:56;13.40;90.50
7606;DHT22;3844;53.360;9.738;2023-03-23T11:50:12;13.30;92.40
7606;DHT22;3844;53.360;9.738;2023-03-23T11:52:23;13.30;91.10
7606;DHT22;3844;53.360;9.738;2023-03-23T11:54:33;13.30;91.70
7606;DHT22;3844;53.360;9.738;2023-03-23T11:56:36;13.40;90.90
7606;DHT22;3844;53.360;9.738;2023-03-23T11:58:37;13.40;91.10
7606;DHT22;3844;53.360;9.738;2023-03-23T12:00:55;13.40;90.50
7606;DHT22;3844;53.360;9.738;2023-03-23T12:03:35;13.40;91.70
7606;DHT22;3844;53.360;9.738;2023-03-23T12:28:27;13.50;93.60
7606;DHT22;3844;53.360;9.738;2023-03-23T12:30:55;13.70;92.80
7606;DHT22;3844;53.360;9.738;2023-03-23T12:33:21;14.10;93.70
7606;DHT22;3844;53.360;9.738;2023-03-23T12:35:46;14.60;87.30
7606;DHT22;3844;53.360;9.738;2023-03-23T12:45:05;14.60;86.70
7606;DHT22;3844;53.360;9.738;2023-03-23T12:47:34;14.60;86.50
7606;DHT22;3844;53.360;9.738;2023-03-23T12:50:01;14.80;87.00
7606;DHT22;3844;53.360;9.738;2023-03-23T12:56:56;15.80;84.50
7606;DHT22;3844;53.360;9.738;2023-03-23T12:59:13;15.80;83.00
7606;DHT22;3844;53.360;9.738;2023-03-23T13:01:25;15.70;81.90
7606;DHT22;3844;53.360;9.738;2023-03-23T13:06:09;15.40;84.10
7606;DHT22;3844;53.360;9.738;2023-03-23T13:08:16;15.30;81.90
7606;DHT22;3844;53.360;9.738;2023-03-23T13:10:47;15.10;82.90
7606;DHT22;3844;53.360;9.738;2023-03-23T13:12:49;15.10;84.20
7606;DHT22;3844;53.360;9.738;2023-03-23T13:17:49;14.90;84.60
7606;DHT22;3844;53.360;9.738;2023-03-23T13:22:19;14.90;84.70
7606;DHT22;3844;53.360;9.738;2023-03-23T13:24:24;15.20;84.00
7606;DHT22;3844;53.360;9.738;2023-03-23T13:26:26;15.40;83.70
7606;DHT22;3844;53.360;9.738;2023-03-23T13:28:29;15.40;82.10
7606;DHT22;3844;53.360;9.738;2023-03-23T13:30:30;15.30;83.40
7606;DHT22;3844;53.360;9.738;2023-03-23T13:32:39;15.40;84.30
7606;DHT22;3844;53.360;9.738;2023-03-23T13:34:41;15.60;83.90
7606;DHT22;3844;53.360;9.738;2023-03-23T13:36:51;15.60;82.80
7606;DHT22;3844;53.360;9.738;2023-03-23T13:38:52;15.50;82.30
7606;DHT22;3844;53.360;9.738;2023-03-23T13:40:53;15.60;82.20
7606;DHT22;3844;53.360;9.738;2023-03-23T13:42:57;15.90;83.20
7606;DHT22;3844;53.360;9.738;2023-03-23T13:49:26;16.70;78.30
7606;DHT22;3844;53.360;9.738;2023-03-23T13:53:45;16.50;78.40
7606;DHT22;3844;53.360;9.738;2023-03-23T14:00:25;16.10;79.00
7606;DHT22;3844;53.360;9.738;2023-03-23T14:02:40;16.10;77.70
7606;DHT22;3844;53.360;9.738;2023-03-23T14:04:42;16.00;79.20
7606;DHT22;3844;53.360;9.738;2023-03-23T14:06:44;15.80;74.00
7606;DHT22;3844;53.360;9.738;2023-03-23T14:08:48;15.40;69.90
7606;DHT22;3844;53.360;9.738;2023-03-23T14:10:56;15.00;72.00
7606;DHT22;3844;53.360;9.738;2023-03-23T14:13:06;14.60;73.00
7606;DHT22;3844;53.360;9.738;2023-03-23T14:15:14;14.20;73.10
7606;DHT22;3844;53.360;9.738;2023-03-23T14:17:22;13.90;73.70
7606;DHT22;3844;53.360;9.738;2023-03-23T14:19:30;13.70;75.10
7606;DHT22;3844;53.360;9.738;2023-03-23T14:21:37;13.60;77.70
7606;DHT22;3844;53.360;9.738;2023-03-23T14:23:39;13.50;77.50
7606;DHT22;3844;53.360;9.738;2023-03-23T14:25:39;13.40;77.70
7606;DHT22;3844;53.360;9.738;2023-03-23T14:27:41;13.20;78.00
7606;DHT22;3844;53.360;9.738;2023-03-23T14:29:46;13.10;78.50
7606;DHT22;3844;53.360;9.738;2023-03-23T14:31:58;13.00;80.70
7606;DHT22;3844;53.360;9.738;2023-03-23T14:34:03;13.00;81.10
7606;DHT22;3844;53.360;9.738;2023-03-23T14:36:05;12.80;81.10
7606;DHT22;3844;53.360;9.738;2023-03-23T14:38:13;12.60;82.20
7606;DHT22;3844;53.360;9.738;2023-03-23T14:40:17;12.40;82.10
7606;DHT22;3844;53.360;9.738;2023-03-23T14:42:30;12.20;83.30
7606;DHT22;3844;53.360;9.738;2023-03-23T14:44:33;12.10;85.40
7606;DHT22;3844;53.360;9.738;2023-03-23T14:46:34;12.10;85.70
7606;DHT22;3844;53.360;9.738;2023-03-23T14:48:36;12.20;85.60
7606;DHT22;3844;53.360;9.738;2023-03-23T14:50:40;12.30;85.10
7606;DHT22;3844;53.360;9.738;2023-03-23T14:54:46;12.60;85.30
7606;DHT22;3844;53.360;9.738;2023-03-23T14:56:47;12.80;85.40
7606;DHT22;3844;53.360;9.738;2023-03-23T14:58:50;12.80;85.70
7606;DHT22;3844;53.360;9.738;2023-03-23T15:02:56;12.80;86.60
7606;DHT22;3844;53.360;9.738;2023-03-23T15:05:28;12.80;87.10
7606;DHT22;3844;53.360;9.738;2023-03-23T15:07:35;12.60;85.30
7606;DHT22;3844;53.360;9.738;2023-03-23T15:09:39;12.50;85.80
7606;DHT22;3844;53.360;9.738;2023-03-23T15:11:41;12.30;85.50
7606;DHT22;3844;53.360;9.738;2023-03-23T15:13:47;12.10;85.50
7606;DHT22;3844;53.360;9.738;2023-03-23T15:15:48;11.90;86.50
7606;DHT22;3844;53.360;9.738;2023-03-23T15:17:49;11.70;88.90
7606;DHT22;3844;53.360;9.738;2023-03-23T15:19:51;11.50;88.50
7606;DHT22;3844;53.360;9.738;2023-03-23T15:23:54;11.30;91.70
7606;DHT22;3844;53.360;9.738;2023-03-23T15:25:56;11.40;93.80
7606;DHT22;3844;53.360;9.738;2023-03-23T15:30:20;11.70;94.00
7606;DHT22;3844;53.360;9.738;2023-03-23T15:32:37;11.80;91.50
7606;DHT22;3844;53.360;9.738;2023-03-23T15:34:38;11.80;91.10
7606;DHT22;3844;53.360;9.738;2023-03-23T15:36:40;11.70;91.30
7606;DHT22;3844;53.360;9.738;2023-03-23T15:38:43;11.70;91.20